Time;durP1;ratioP1;P1;durP2;ratioP2;P2;SDS_P1;SDS_P2;PMS_P1;PMS_P2;Temp;Humidity;BMP_temperature;BMP_pressure;BME280_temperature;BME280_humidity;BME280_pressure;Samples;Min_cycle;Max_cycle;Signal;HPM_P1;HPM_P2
2022/07/26 00:01:54;;;;;;;19.75;4.57;;;;;;;26.04;50.27;101234.53;5027320;28;20366;-71
2022/07/26 00:04:19;;;;;;;16.15;3.33;;;;;;;26.01;50.48;101230.47;5026932;28;20045;-73
2022/07/26 00:06:45;;;;;;;18.83;4.25;;;;;;;25.76;51.00;101228.41;5027172;28;20044;-73
2022/07/26 00:09:10;;;;;;;20.30;4.07;;;;;;;26.16;49.75;101229.25;5027223;28;20401;-73
2022/07/26 00:11:36;;;;;;;16.83;4.15;;;;;;;25.94;50.29;101234.81;5027330;28;20042;-72
2022/07/26 00:14:03;;;;;;;14.07;2.75;;;;;;;26.05;50.11;101234.19;5027527;28;20041;-73
2022/07/26 00:16:29;;;;;;;17.92;2.88;;;;;;;25.97;50.42;101240.50;5027673;28;20053;-74
2022/07/26 00:18:55;;;;;;;17.27;3.40;;;;;;;25.69;51.22;101236.31;5027150;28;20037;-73
2022/07/26 00:21:21;;;;;;;15.90;3.17;;;;;;;25.82;51.05;101238.16;5027519;28;20030;-74
2022/07/26 00:23:46;;;;;;;20.02;3.92;;;;;;;26.03;49.91;101239.22;5026980;28;20034;-74
2022/07/26 00:26:11;;;;;;;14.65;2.67;;;;;;;25.92;50.58;101243.41;5027376;28;20319;-74
2022/07/26 00:28:37;;;;;;;18.17;3.40;;;;;;;25.35;52.07;101243.53;5027423;28;20093;-72
2022/07/26 00:31:03;;;;;;;21.20;3.50;;;;;;;25.59;51.52;101238.53;5027475;28;20440;-72
2022/07/26 00:33:28;;;;;;;23.83;3.85;;;;;;;25.61;51.28;101242.56;5027277;28;20264;-72
2022/07/26 00:35:54;;;;;;;13.63;3.30;;;;;;;25.64;50.90;101235.63;5027506;28;20033;-74
2022/07/26 00:38:19;;;;;;;30.75;4.65;;;;;;;25.37;52.04;101244.03;5027710;28;20030;-74
2022/07/26 00:40:44;;;;;;;25.38;4.13;;;;;;;25.76;50.75;101238.63;5027069;28;20032;-73
2022/07/26 00:43:10;;;;;;;24.38;3.67;;;;;;;25.69;51.09;101249.28;5028346;28;20329;-73
2022/07/26 00:45:35;;;;;;;18.20;4.13;;;;;;;25.53;51.36;101242.53;5027020;28;20088;-73
2022/07/26 00:48:01;;;;;;;23.17;3.28;;;;;;;25.21;52.41;101247.16;5027177;28;20172;-73
2022/07/26 00:50:26;;;;;;;18.33;3.40;;;;;;;25.00;52.94;101254.25;5027430;28;20038;-74
2022/07/26 00:52:53;;;;;;;17.38;2.67;;;;;;;24.71;54.26;101251.06;5027384;28;20026;-75
2022/07/26 00:55:19;;;;;;;27.92;4.57;;;;;;;25.53;51.52;101251.63;5027998;28;20053;-73
2022/07/26 00:57:46;;;;;;;21.23;2.85;;;;;;;24.97;53.11;101259.56;5026936;28;20037;-72
2022/07/26 01:00:14;;;;;;;17.38;3.10;;;;;;;24.75;53.88;101262.28;5025727;28;20037;-74
2022/07/26 01:02:40;;;;;;;14.98;3.78;;;;;;;25.21;52.29;101271.09;5026981;28;20036;-73
2022/07/26 01:05:06;;;;;;;21.05;3.20;;;;;;;25.16;52.84;101258.28;5025724;28;20497;-73
2022/07/26 01:07:32;;;;;;;27.92;3.20;;;;;;;25.25;52.39;101263.84;5026883;28;20061;-72
2022/07/26 01:09:57;;;;;;;21.00;3.60;;;;;;;25.34;52.25;101261.16;5008681;28;20519;-72
2022/07/26 01:12:23;;;;;;;17.73;3.58;;;;;;;25.43;51.88;101254.63;5026706;28;20033;-72
2022/07/26 01:14:48;;;;;;;20.35;3.65;;;;;;;25.64;51.22;101257.66;5027006;28;20038;-73
2022/07/26 01:17:14;;;;;;;15.35;2.70;;;;;;;25.36;52.19;101256.13;5026280;28;20042;-72
2022/07/26 01:19:40;;;;;;;14.63;3.13;;;;;;;24.85;53.34;101257.38;5029757;28;20401;-74
2022/07/26 01:22:06;;;;;;;16.77;3.80;;;;;;;24.99;53.06;101260.06;5031071;28;20037;-73
2022/07/26 01:24:31;;;;;;;26.05;3.55;;;;;;;24.98;53.54;101259.25;5030477;28;20414;-72
2022/07/26 01:26:57;;;;;;;15.43;3.10;;;;;;;24.92;53.42;101256.97;5030219;28;20041;-74
2022/07/26 01:29:23;;;;;;;17.92;2.88;;;;;;;24.27;55.57;101261.94;5030419;28;20048;-72
2022/07/26 01:31:49;;;;;;;20.60;3.00;;;;;;;24.63;54.10;101253.75;5030282;28;20524;-72
2022/07/26 01:34:14;;;;;;;20.33;4.00;;;;;;;24.85;53.84;101256.56;5030840;28;20029;-74
2022/07/26 01:36:40;;;;;;;24.33;5.30;;;;;;;24.99;53.45;101258.16;5029902;28;20065;-74
2022/07/26 01:39:06;;;;;;;14.30;2.90;;;;;;;24.98;53.08;101251.00;5030271;28;20033;-72
2022/07/26 01:41:31;;;;;;;26.50;4.22;;;;;;;24.64;54.10;101256.19;5029875;28;20052;-72
2022/07/26 01:43:57;;;;;;;20.10;3.95;;;;;;;24.04;56.61;101255.50;5030276;28;20049;-72
2022/07/26 01:46:22;;;;;;;22.17;3.53;;;;;;;23.81;57.13;101250.16;5030567;28;20061;-71
2022/07/26 01:48:48;;;;;;;15.85;4.05;;;;;;;24.45;55.50;101252.75;5030388;28;20037;-74
2022/07/26 01:51:13;;;;;;;16.10;4.10;;;;;;;24.81;53.68;101253.63;5029588;28;20073;-73
2022/07/26 01:53:38;;;;;;;18.38;4.57;;;;;;;24.72;53.97;101251.88;5029660;28;20029;-74
2022/07/26 01:56:04;;;;;;;17.23;4.18;;;;;;;24.98;53.68;101255.72;5029790;28;20038;-73
2022/07/26 01:58:29;;;;;;;18.73;4.63;;;;;;;24.86;53.77;101255.44;5029631;28;20021;-73
2022/07/26 02:00:55;;;;;;;15.80;3.33;;;;;;;25.25;52.56;101253.66;5029772;28;20160;-72
2022/07/26 02:03:20;;;;;;;18.35;3.83;;;;;;;25.30;52.46;101252.72;5029912;28;20037;-75
2022/07/26 02:05:46;;;;;;;25.48;3.55;;;;;;;25.43;51.96;101245.56;5027936;28;20063;-74
2022/07/26 02:08:11;;;;;;;16.73;3.83;;;;;;;25.49;51.75;101253.38;5029762;28;20533;-70
2022/07/26 02:13:20;;;;;;;15.02;3.03;;;;;;;25.25;52.33;101247.34;5030358;28;20027;-73
2022/07/26 02:15:46;;;;;;;13.57;3.17;;;;;;;25.14;52.78;101249.53;5028980;28;20045;-73
2022/07/26 02:18:11;;;;;;;13.23;2.83;;;;;;;25.01;53.26;101244.91;5029041;28;20038;-74
2022/07/26 02:20:37;;;;;;;17.52;3.75;;;;;;;25.05;52.58;101251.41;5028919;28;20053;-73
2022/07/26 02:23:03;;;;;;;18.23;3.97;;;;;;;24.31;55.21;101244.50;5029140;28;20036;-73
2022/07/26 02:25:29;;;;;;;29.95;4.55;;;;;;;24.28;55.18;101244.31;5029416;28;20053;-71
2022/07/26 02:27:55;;;;;;;15.32;3.25;;;;;;;24.70;54.15;101249.47;5029177;28;20038;-74
2022/07/26 02:30:20;;;;;;;30.58;3.72;;;;;;;24.98;53.55;101251.00;5028705;28;20605;-73
2022/07/26 02:32:46;;;;;;;14.55;3.38;;;;;;;25.11;52.58;101250.16;5029045;28;20033;-72
2022/07/26 02:35:12;;;;;;;17.88;3.88;;;;;;;24.94;53.20;101250.00;5029326;28;20233;-73
2022/07/26 02:37:39;;;;;;;27.05;4.72;;;;;;;24.87;53.29;101249.63;5028801;28;20041;-74
2022/07/26 02:40:05;;;;;;;15.10;2.88;;;;;;;24.98;53.16;101259.25;5029208;28;20037;-73
2022/07/26 02:42:30;;;;;;;18.77;3.72;;;;;;;25.10;53.05;101248.53;5028544;28;20060;-73
2022/07/26 02:44:56;;;;;;;15.32;3.55;;;;;;;25.37;51.84;101247.59;5010991;28;20038;-74
2022/07/26 02:47:21;;;;;;;14.32;3.25;;;;;;;25.17;52.37;101253.59;5029125;28;20052;-73
2022/07/26 02:49:46;;;;;;;16.25;3.33;;;;;;;24.96;53.37;101258.75;5028830;28;20500;-73
2022/07/26 02:52:12;;;;;;;14.43;3.50;;;;;;;24.80;53.14;101256.69;5029216;28;20104;-73
2022/07/26 02:54:37;;;;;;;11.65;2.60;;;;;;;25.22;51.93;101262.53;5029136;28;20045;-73
2022/07/26 02:57:03;;;;;;;18.35;3.60;;;;;;;25.09;52.19;101276.34;5028751;28;20092;-74
2022/07/26 02:59:29;;;;;;;13.38;3.30;;;;;;;24.62;53.73;101280.41;5028463;28;20555;-75
2022/07/26 03:01:54;;;;;;;15.43;3.03;;;;;;;24.80;53.19;101278.69;5028618;28;20053;-74
2022/07/26 03:04:19;;;;;;;11.30;3.20;;;;;;;24.66;53.58;101284.19;5004039;28;20037;-74
2022/07/26 03:06:45;;;;;;;13.98;3.42;;;;;;;24.94;52.56;101277.50;5008654;28;20049;-73
2022/07/26 03:09:11;;;;;;;10.73;3.17;;;;;;;24.89;52.48;101274.06;5024014;28;20056;-73
2022/07/26 03:11:36;;;;;;;10.30;2.75;;;;;;;25.04;52.20;101273.72;5028370;28;20056;-74
2022/07/26 03:14:01;;;;;;;14.60;3.15;;;;;;;24.59;53.28;101282.97;5028286;28;20056;-72
2022/07/26 03:16:27;;;;;;;8.35;2.90;;;;;;;25.11;51.98;101283.16;5029043;28;20044;-72
2022/07/26 03:18:52;;;;;;;13.13;3.03;;;;;;;24.27;54.19;101292.16;5028398;28;20039;-72
2022/07/26 03:21:17;;;;;;;12.25;3.15;;;;;;;24.45;53.60;101288.50;5028333;28;20084;-74
2022/07/26 03:23:43;;;;;;;11.80;3.30;;;;;;;24.38;54.29;101297.13;5028062;28;20040;-73
2022/07/26 03:26:08;;;;;;;6.30;3.13;;;;;;;23.92;55.71;101296.34;5027964;28;20413;-72
2022/07/26 03:28:34;;;;;;;11.32;1.98;;;;;;;24.30;54.49;101308.84;5028092;28;20296;-73
2022/07/26 03:31:01;;;;;;;5.95;2.35;;;;;;;24.78;52.37;101309.25;5028429;28;20053;-75
2022/07/26 03:33:26;;;;;;;8.13;2.83;;;;;;;24.69;53.14;101311.03;5028131;28;20040;-73
2022/07/26 03:35:52;;;;;;;11.52;3.63;;;;;;;24.64;53.17;101308.41;5027905;28;20049;-72
2022/07/26 03:38:17;;;;;;;6.25;2.42;;;;;;;24.43;53.89;101316.25;5028358;28;20080;-72
2022/07/26 03:40:43;;;;;;;9.80;2.85;;;;;;;24.73;52.71;101314.00;5027351;28;20037;-71
2022/07/26 03:43:08;;;;;;;7.03;2.40;;;;;;;25.12;51.63;101322.47;5028551;28;20496;-71
2022/07/26 03:45:33;;;;;;;7.07;3.03;;;;;;;24.37;53.78;101324.91;5027769;28;20092;-74
2022/07/26 03:47:59;;;;;;;10.32;2.60;;;;;;;25.02;51.99;101325.47;5027442;28;20501;-71
2022/07/26 03:50:24;;;;;;;6.05;2.22;;;;;;;24.69;53.02;101324.78;5027429;28;20033;-73
2022/07/26 03:52:49;;;;;;;12.50;4.18;;;;;;;24.31;54.35;101335.16;5028041;28;20049;-73
2022/07/26 03:57:59;;;;;;;7.70;2.40;;;;;;;23.87;55.62;101337.63;5027744;28;20045;-74
2022/07/26 04:00:25;;;;;;;4.45;2.03;;;;;;;24.12;55.54;101341.88;5027622;28;20045;-73
2022/07/26 04:02:51;;;;;;;7.45;2.28;;;;;;;23.96;55.68;101340.50;5026698;28;20049;-72
2022/07/26 04:05:16;;;;;;;4.75;1.88;;;;;;;23.08;58.92;101348.72;5026670;28;20045;-73
2022/07/26 04:07:43;;;;;;;6.38;2.17;;;;;;;23.54;57.00;101344.25;5027913;28;20041;-72
2022/07/26 04:10:09;;;;;;;3.30;1.67;;;;;;;23.98;55.53;101355.53;5028486;28;20041;-74
2022/07/26 04:12:35;;;;;;;3.20;0.98;;;;;;;23.79;55.89;101351.22;5015190;28;20461;-73
2022/07/26 04:15:00;;;;;;;4.30;1.63;;;;;;;24.71;52.55;101351.94;5027729;28;20042;-75
2022/07/26 04:17:25;;;;;;;4.43;1.67;;;;;;;24.72;52.07;101357.19;5030065;28;20048;-74
2022/07/26 04:19:51;;;;;;;4.00;1.75;;;;;;;24.68;52.56;101361.66;5028856;28;20128;-74
2022/07/26 04:22:16;;;;;;;7.43;1.38;;;;;;;24.66;52.69;101363.06;5028823;28;20029;-73
2022/07/26 04:24:42;;;;;;;3.65;1.38;;;;;;;24.46;53.10;101366.22;5028255;28;20064;-75
2022/07/26 04:27:07;;;;;;;6.82;2.10;;;;;;;24.43;53.30;101368.44;5028576;28;20060;-72
2022/07/26 04:29:33;;;;;;;3.45;1.27;;;;;;;24.33;53.40;101373.34;5010278;28;20040;-74
2022/07/26 04:31:58;;;;;;;4.85;1.50;;;;;;;24.38;53.40;101371.31;5028381;28;20593;-72
2022/07/26 04:34:24;;;;;;;3.72;1.63;;;;;;;24.80;52.57;101369.41;5029063;28;20458;-74
2022/07/26 04:36:49;;;;;;;9.05;2.50;;;;;;;24.89;52.08;101378.56;5028433;28;20417;-73
2022/07/26 04:39:14;;;;;;;5.45;1.65;;;;;;;25.13;51.11;101373.63;5028075;28;20037;-74
2022/07/26 04:41:40;;;;;;;6.93;1.90;;;;;;;25.15;50.92;101379.63;5028197;28;20048;-74
2022/07/26 04:44:05;;;;;;;6.60;1.88;;;;;;;25.44;50.64;101382.84;5028642;28;20033;-73
2022/07/26 04:46:30;;;;;;;6.82;1.38;;;;;;;25.39;50.37;101384.88;5028508;28;20076;-74
2022/07/26 04:48:56;;;;;;;11.07;2.22;;;;;;;25.27;51.09;101379.91;5028680;28;20022;-73
2022/07/26 04:51:21;;;;;;;4.72;1.65;;;;;;;24.96;52.29;101379.75;5028446;28;20041;-74
2022/07/26 04:53:47;;;;;;;8.20;2.25;;;;;;;25.17;51.84;101391.97;5030143;28;20037;-75
2022/07/26 04:56:12;;;;;;;6.55;1.83;;;;;;;25.00;51.71;101388.22;5031970;28;20359;-73
2022/07/26 04:58:37;;;;;;;6.43;1.52;;;;;;;25.30;51.76;101384.78;5031984;28;20022;-74
2022/07/26 05:01:03;;;;;;;6.68;1.58;;;;;;;24.63;53.60;101388.44;5031930;28;20037;-74
2022/07/26 05:03:28;;;;;;;6.68;1.60;;;;;;;25.27;51.96;101393.66;5031164;28;20516;-72
2022/07/26 05:05:54;;;;;;;8.80;1.95;;;;;;;25.28;52.39;101412.63;5012135;28;20038;-73
2022/07/26 05:08:19;;;;;;;7.25;1.98;;;;;;;25.14;52.47;101408.25;5010604;28;20030;-73
2022/07/26 05:10:44;;;;;;;6.68;1.90;;;;;;;25.44;51.88;101412.28;5012184;28;20034;-69
2022/07/26 05:13:10;;;;;;;4.80;1.73;;;;;;;25.34;52.26;101409.75;5012573;28;20021;-68
2022/07/26 05:15:35;;;;;;;7.18;1.77;;;;;;;25.50;52.01;101409.13;5016907;28;20080;-68
2022/07/26 05:18:09;;;;;;;10.63;2.10;;;;;;;25.19;52.69;101417.22;5013767;28;20409;-69
2022/07/26 05:20:36;;;;;;;7.10;1.85;;;;;;;24.93;53.35;101415.31;5031596;28;20053;-69
2022/07/26 05:23:01;;;;;;;7.90;2.00;;;;;;;24.28;54.97;101420.13;5031441;28;20117;-69
2022/07/26 05:25:27;;;;;;;6.63;1.60;;;;;;;24.32;54.77;101421.97;5031825;28;20128;-69
2022/07/26 05:27:53;;;;;;;8.07;1.73;;;;;;;24.49;54.48;101424.13;5031372;28;20025;-69
2022/07/26 05:30:18;;;;;;;7.72;1.70;;;;;;;24.45;54.82;101428.63;5031794;28;20038;-70
2022/07/26 05:32:44;;;;;;;4.10;1.60;;;;;;;24.74;53.59;101434.69;5031193;28;20091;-69
2022/07/26 05:35:09;;;;;;;8.70;1.40;;;;;;;24.88;52.83;101437.44;5029246;28;20038;-68
2022/07/26 05:37:35;;;;;;;8.15;1.92;;;;;;;24.82;52.91;101444.16;5030994;28;20029;-70
2022/07/26 05:40:03;;;;;;;10.50;2.00;;;;;;;24.74;52.70;101433.88;5030671;28;20120;-68
2022/07/26 05:42:28;;;;;;;10.40;1.27;;;;;;;24.97;51.90;101439.16;5031459;28;20401;-70
2022/07/26 05:44:53;;;;;;;5.30;1.15;;;;;;;24.95;51.25;101441.41;5031316;28;20045;-68
2022/07/26 05:47:19;;;;;;;5.00;1.45;;;;;;;25.38;49.83;101443.78;5031589;28;20029;-69
2022/07/26 05:49:44;;;;;;;6.30;1.52;;;;;;;24.69;51.50;101448.47;5031205;28;20033;-69
2022/07/26 05:52:10;;;;;;;6.57;1.10;;;;;;;24.55;51.76;101461.38;5031713;28;20516;-71
2022/07/26 05:54:35;;;;;;;13.52;1.75;;;;;;;25.09;50.03;101463.38;5031258;28;20112;-68
2022/07/26 05:57:01;;;;;;;7.15;1.02;;;;;;;25.25;49.37;101475.72;5030978;28;20723;-70
2022/07/26 05:59:27;;;;;;;5.53;1.20;;;;;;;25.03;49.90;101468.19;5031289;28;20072;-68
2022/07/26 06:01:55;;;;;;;6.15;1.45;;;;;;;25.04;49.42;101463.50;5031139;28;20042;-68
2022/07/26 06:04:24;;;;;;;4.18;0.88;;;;;;;24.52;49.96;101467.50;5024092;28;20435;-67
2022/07/26 06:06:49;;;;;;;5.75;0.93;;;;;;;25.08;48.56;101470.03;5013791;28;20120;-69
2022/07/26 06:09:15;;;;;;;4.00;0.90;;;;;;;24.84;48.75;101472.16;5032053;28;20029;-67
2022/07/26 06:11:41;;;;;;;6.53;0.85;;;;;;;24.36;49.55;101480.69;5030489;28;20666;-68
2022/07/26 06:14:07;;;;;;;6.47;1.17;;;;;;;24.51;49.03;101473.31;5030784;28;20426;-70
2022/07/26 06:16:32;;;;;;;3.78;1.02;;;;;;;23.83;51.61;101484.00;5030533;28;20039;-69
2022/07/26 06:18:58;;;;;;;11.13;1.95;;;;;;;23.86;51.13;101489.72;5031038;28;20017;-69
2022/07/26 06:21:23;;;;;;;5.22;0.82;;;;;;;23.10;53.74;101489.91;5030593;28;20037;-68
2022/07/26 06:23:50;;;;;;;8.35;1.48;;;;;;;24.51;50.05;101487.06;5030761;28;20034;-70
2022/07/26 06:26:15;;;;;;;8.98;1.98;;;;;;;24.33;50.16;101500.53;5030621;28;20037;-69
2022/07/26 06:28:42;;;;;;;8.73;0.98;;;;;;;24.55;49.78;101505.34;5030483;28;20027;-68
2022/07/26 06:31:08;;;;;;;2.97;0.77;;;;;;;24.17;50.21;101510.16;5031067;28;20060;-68
2022/07/26 06:33:34;;;;;;;3.85;0.70;;;;;;;24.37;49.24;101517.25;5030045;28;20026;-69
2022/07/26 06:35:59;;;;;;;3.13;0.65;;;;;;;24.11;50.24;101516.84;5030408;28;20037;-70
2022/07/26 06:38:25;;;;;;;2.33;0.40;;;;;;;24.43;49.05;101525.06;5027539;28;20041;-68
2022/07/26 06:40:50;;;;;;;6.63;0.82;;;;;;;24.01;50.43;101529.88;5029463;28;20120;-70
2022/07/26 06:43:16;;;;;;;5.78;0.90;;;;;;;24.61;49.23;101531.63;5030102;28;20025;-68
2022/07/26 06:45:41;;;;;;;3.45;0.95;;;;;;;24.87;48.93;101524.59;5030144;28;20215;-68
2022/07/26 06:48:06;;;;;;;2.38;0.60;;;;;;;24.56;48.85;101540.00;5029899;28;20401;-71
2022/07/26 06:50:32;;;;;;;3.22;0.60;;;;;;;24.33;50.01;101536.25;5029904;28;20053;-70
2022/07/26 06:52:57;;;;;;;7.18;0.82;;;;;;;24.05;50.13;101536.44;5029095;28;20041;-70
2022/07/26 06:55:23;;;;;;;6.50;1.17;;;;;;;24.46;48.83;101542.91;5028606;28;20033;-71
2022/07/26 06:57:48;;;;;;;4.30;0.50;;;;;;;24.42;48.22;101537.19;5027863;28;20120;-70
2022/07/26 07:00:14;;;;;;;4.70;0.82;;;;;;;24.04;49.22;101543.03;5028905;28;20121;-72
2022/07/26 07:02:39;;;;;;;4.93;0.65;;;;;;;24.92;47.33;101534.69;5025965;28;20034;-70
2022/07/26 07:05:05;;;;;;;8.32;1.00;;;;;;;25.04;46.49;101546.03;5028804;28;20029;-71
2022/07/26 07:07:31;;;;;;;7.30;1.05;;;;;;;25.13;46.33;101546.94;5029125;28;20048;-68
2022/07/26 07:09:56;;;;;;;5.88;0.80;;;;;;;24.46;46.79;101553.06;5029486;28;20390;-69
2022/07/26 07:12:21;;;;;;;3.05;0.73;;;;;;;24.08;48.19;101558.63;5027389;28;20049;-68
2022/07/26 07:14:47;;;;;;;5.57;0.90;;;;;;;24.64;46.94;101561.28;5010607;28;20037;-67
2022/07/26 07:17:17;;;;;;;6.88;0.57;;;;;;;23.75;48.22;101565.09;5024928;28;20064;-67
2022/07/26 07:19:43;;;;;;;3.88;1.27;;;;;;;23.87;48.83;101565.50;5026128;28;20164;-69
2022/07/26 07:22:10;;;;;;;6.80;0.80;;;;;;;24.15;48.28;101566.50;5028537;28;20037;-69
2022/07/26 07:24:36;;;;;;;8.38;0.70;;;;;;;24.63;47.34;101567.88;5028324;28;20068;-69
2022/07/26 07:27:01;;;;;;;6.03;1.25;;;;;;;24.47;47.55;101573.97;5029084;28;20026;-70
2022/07/26 07:29:26;;;;;;;2.20;0.52;;;;;;;24.33;48.62;101573.91;5028888;28;20029;-70
2022/07/26 07:31:52;;;;;;;5.85;0.70;;;;;;;24.72;47.95;101577.13;5011137;28;20454;-69
2022/07/26 07:34:21;;;;;;;7.57;1.10;;;;;;;23.94;50.06;101578.88;5027307;28;20079;-69
2022/07/26 07:36:47;;;;;;;5.35;0.82;;;;;;;24.20;49.52;101578.22;5011043;28;20040;-70
2022/07/26 07:39:12;;;;;;;2.92;0.55;;;;;;;24.78;48.32;101581.41;5028654;28;20041;-72
2022/07/26 07:41:38;;;;;;;5.10;0.88;;;;;;;25.18;47.12;101583.41;5028810;28;20048;-69
2022/07/26 07:44:04;;;;;;;5.32;0.60;;;;;;;24.86;47.42;101582.66;5026724;28;20037;-69
2022/07/26 07:46:30;;;;;;;4.93;0.82;;;;;;;24.94;47.34;101599.25;5028480;28;20037;-69
2022/07/26 07:48:55;;;;;;;2.50;0.60;;;;;;;24.98;46.92;101603.03;5025247;28;20049;-70
2022/07/26 07:51:20;;;;;;;4.20;0.60;;;;;;;24.61;47.58;101602.31;5027953;28;20594;-68
2022/07/26 07:53:46;;;;;;;3.75;1.02;;;;;;;24.79;46.74;101601.47;5026820;28;20045;-68
2022/07/26 07:56:11;;;;;;;4.07;0.70;;;;;;;25.28;45.44;101609.91;5026863;28;20033;-67
2022/07/26 07:58:37;;;;;;;3.85;0.80;;;;;;;24.85;46.23;101605.75;5009805;28;20041;-67
2022/07/26 08:01:02;;;;;;;4.00;0.60;;;;;;;25.31;45.18;101608.50;5028340;28;20172;-69
2022/07/26 08:03:27;;;;;;;5.47;0.93;;;;;;;25.53;44.57;101603.94;5009985;28;20030;-71
2022/07/26 08:05:53;;;;;;;6.25;0.50;;;;;;;25.21;45.06;101610.31;5028054;28;20053;-68
2022/07/26 08:08:19;;;;;;;1.00;0.40;;;;;;;24.92;44.90;101617.19;5028443;28;20041;-69
2022/07/26 08:10:44;;;;;;;5.68;0.75;;;;;;;25.36;44.42;101611.94;5028788;28;20393;-69
2022/07/26 08:13:10;;;;;;;1.35;0.52;;;;;;;25.33;44.13;101604.31;5029470;28;20033;-69
2022/07/26 08:15:35;;;;;;;7.97;0.80;;;;;;;25.82;42.42;101606.38;5028740;28;20040;-69
2022/07/26 08:18:02;;;;;;;3.42;0.57;;;;;;;25.36;43.52;101611.13;5029009;28;20037;-68
2022/07/26 08:20:27;;;;;;;3.90;0.65;;;;;;;25.95;42.19;101605.50;5028840;28;20458;-68
2022/07/26 08:22:53;;;;;;;3.00;1.00;;;;;;;25.24;43.66;101619.88;5028852;28;20105;-69
2022/07/26 08:25:18;;;;;;;4.38;1.05;;;;;;;25.21;43.50;101613.06;5029557;28;20100;-68
2022/07/26 08:27:44;;;;;;;3.75;0.68;;;;;;;24.93;44.42;101613.31;5030767;28;20374;-69
2022/07/26 08:30:10;;;;;;;4.65;0.82;;;;;;;25.42;42.90;101618.19;5032805;28;20045;-69
2022/07/26 08:32:35;;;;;;;3.30;0.52;;;;;;;25.87;42.15;101614.50;5032829;28;20057;-71
2022/07/26 08:35:01;;;;;;;4.15;0.95;;;;;;;25.16;44.44;101618.66;5032645;28;20038;-69
2022/07/26 08:37:26;;;;;;;3.67;0.57;;;;;;;25.68;43.27;101625.66;5033374;28;20076;-69
2022/07/26 08:39:51;;;;;;;4.20;0.63;;;;;;;25.48;43.48;101634.31;5032963;28;20045;-69
2022/07/26 08:42:19;;;;;;;2.20;0.38;;;;;;;25.02;44.11;101637.06;5015087;28;20030;-69
2022/07/26 08:44:46;;;;;;;5.03;2.05;;;;;;;25.33;42.30;101631.84;5032386;28;20037;-68
2022/07/26 08:47:13;;;;;;;4.55;0.45;;;;;;;25.79;40.12;101651.03;5031042;28;20037;-70
2022/07/26 08:49:39;;;;;;;6.82;0.82;;;;;;;24.40;41.70;101637.53;5032389;28;20067;-69
2022/07/26 08:52:05;;;;;;;2.20;0.32;;;;;;;24.73;41.39;101646.66;5033090;28;20104;-69
2022/07/26 08:54:31;;;;;;;8.88;2.15;;;;;;;24.68;42.00;101649.47;5032340;28;20034;-68
2022/07/26 08:56:57;;;;;;;5.03;0.85;;;;;;;25.01;41.77;101657.47;5032629;28;20550;-69
2022/07/26 08:59:23;;;;;;;8.05;0.77;;;;;;;25.55;40.74;101661.44;5032384;28;20033;-68
2022/07/26 09:01:51;;;;;;;6.03;0.88;;;;;;;24.73;41.49;101658.47;5032917;28;20647;-70
2022/07/26 09:04:18;;;;;;;2.80;0.60;;;;;;;24.84;41.39;101662.72;5025683;28;20152;-68
2022/07/26 09:07:03;;;;;;;4.57;1.25;;;;;;;24.45;42.65;101664.94;5012293;28;20030;-70
2022/07/26 09:09:30;;;;;;;6.45;0.85;;;;;;;24.95;41.73;101671.59;5011910;28;20088;-70
2022/07/26 09:11:55;;;;;;;2.50;0.40;;;;;;;24.57;43.79;101676.28;5012277;28;20331;-69
2022/07/26 09:14:21;;;;;;;5.72;0.70;;;;;;;24.38;44.88;101684.53;5015605;28;20037;-70
2022/07/26 09:16:58;;;;;;;7.13;1.10;;;;;;;24.72;44.50;101683.50;5031989;28;20072;-69
2022/07/26 09:19:23;;;;;;;5.30;1.05;;;;;;;24.95;44.19;101690.84;5032198;28;20037;-69
2022/07/26 09:21:50;;;;;;;3.45;0.63;;;;;;;25.46;42.48;101691.59;5032169;28;20149;-70
2022/07/26 09:24:36;;;;;;;8.02;0.93;;;;;;;25.36;43.24;101690.94;5031433;28;20058;-69
2022/07/26 09:27:04;;;;;;;4.05;0.75;;;;;;;24.63;44.44;101694.34;5013711;28;20049;-68
2022/07/26 09:29:30;;;;;;;4.70;0.85;;;;;;;25.16;43.39;101692.94;5031971;28;20658;-70
2022/07/26 09:32:15;;;;;;;4.05;0.73;;;;;;;25.72;42.20;101692.75;5031945;28;20405;-70
2022/07/26 09:34:41;;;;;;;2.88;0.50;;;;;;;25.58;41.65;101702.13;5031368;28;20060;-68
2022/07/26 09:37:06;;;;;;;4.03;0.80;;;;;;;25.85;41.00;101702.13;5014188;28;20021;-70
2022/07/26 09:39:32;;;;;;;4.30;0.57;;;;;;;26.44;40.31;101701.16;5030737;28;20759;-67
2022/07/26 09:41:57;;;;;;;5.53;1.60;;;;;;;26.54;39.97;101700.94;5031246;28;20045;-69
2022/07/26 09:44:24;;;;;;;7.80;0.90;;;;;;;26.54;40.82;101704.50;5031418;28;20060;-68
2022/07/26 09:46:53;;;;;;;4.25;0.63;;;;;;;25.64;41.02;101710.00;5014016;28;20041;-68
2022/07/26 09:49:20;;;;;;;1.75;0.40;;;;;;;25.72;39.71;101708.47;5032300;28;20373;-68
2022/07/26 09:51:48;;;;;;;3.67;0.50;;;;;;;26.40;38.87;101711.16;5030722;28;20144;-69
2022/07/26 09:54:18;;;;;;;6.88;0.60;;;;;;;27.29;37.35;101699.09;5030618;28;20036;-70
2022/07/26 09:56:49;;;;;;;3.95;0.63;;;;;;;27.00;37.72;101709.78;5030542;28;20405;-71
2022/07/26 09:59:18;;;;;;;3.67;0.75;;;;;;;26.22;39.37;101706.63;5030229;28;20029;-69
2022/07/26 10:01:44;;;;;;;3.78;0.68;;;;;;;26.36;38.79;101705.47;5030450;28;20056;-68
2022/07/26 10:04:10;;;;;;;2.05;0.50;;;;;;;26.36;38.72;101712.94;5025020;28;20030;-69
2022/07/26 10:06:36;;;;;;;3.35;0.85;;;;;;;27.11;37.19;101713.09;5010964;28;20566;-70
2022/07/26 10:09:03;;;;;;;3.72;0.63;;;;;;;27.60;36.18;101704.63;5010679;28;20045;-69
2022/07/26 10:11:35;;;;;;;4.00;1.00;;;;;;;27.42;36.24;101714.78;5021528;28;20038;-69
2022/07/26 10:14:32;;;;;;;4.22;0.90;;;;;;;27.35;36.83;101711.66;5030968;28;20030;-70
2022/07/26 10:17:32;;;;;;;1.40;0.35;;;;;;;27.92;35.79;101715.31;5030729;28;20056;-70
2022/07/26 10:20:03;;;;;;;4.63;0.82;;;;;;;27.34;36.32;101709.22;5030760;28;20037;-71
2022/07/26 10:22:40;;;;;;;3.85;0.40;;;;;;;26.61;37.86;101715.91;5031163;28;20138;-70
2022/07/26 10:25:34;;;;;;;4.78;0.80;;;;;;;26.81;37.58;101726.50;5030887;28;20087;-71
2022/07/26 10:28:00;;;;;;;7.68;0.88;;;;;;;26.82;37.07;101733.66;4930998;29;20039;-68
2022/07/26 10:30:26;;;;;;;6.00;0.68;;;;;;;25.58;39.59;101732.41;4930709;29;20148;-69
2022/07/26 10:33:01;;;;;;;3.60;0.68;;;;;;;25.98;39.21;101740.69;4930708;29;20067;-68
2022/07/26 10:35:39;;;;;;;9.95;2.28;;;;;;;25.87;40.67;101749.47;4930283;29;20066;-70
2022/07/26 10:38:08;;;;;;;7.75;1.30;;;;;;;25.50;41.86;101747.69;4929281;29;20071;-71
2022/07/26 10:40:35;;;;;;;7.53;1.00;;;;;;;25.92;41.05;101754.88;4929843;29;20659;-69
2022/07/26 10:43:07;;;;;;;7.25;0.98;;;;;;;25.94;40.66;101771.94;4930145;29;20204;-71
2022/07/26 10:45:33;;;;;;;5.40;0.80;;;;;;;24.93;43.28;101764.56;4929404;29;20059;-69
2022/07/26 10:48:10;;;;;;;8.93;1.42;;;;;;;24.63;43.72;101773.25;4929670;29;20183;-70
2022/07/26 10:50:35;;;;;;;11.52;1.95;;;;;;;24.66;43.91;101767.97;4928500;29;20035;-71
2022/07/26 10:53:02;;;;;;;9.20;1.38;;;;;;;24.93;43.06;101770.91;4929463;29;20112;-69
2022/07/26 10:55:27;;;;;;;11.65;1.45;;;;;;;25.22;42.08;101773.47;4929600;29;20058;-69
2022/07/26 10:57:53;;;;;;;7.45;1.65;;;;;;;25.36;41.79;101776.25;4929277;29;20035;-70
2022/07/26 11:00:23;;;;;;;5.25;1.23;;;;;;;26.02;40.88;101780.28;4929781;29;20120;-69
2022/07/26 11:02:58;;;;;;;5.32;1.27;;;;;;;25.10;42.41;101790.44;4929507;29;20550;-69
2022/07/26 11:05:29;;;;;;;7.30;2.13;;;;;;;25.58;41.97;101787.47;5019023;28;20121;-69
2022/07/26 11:08:08;;;;;;;9.07;1.73;;;;;;;24.94;42.44;101790.97;5028875;28;20138;-70
2022/07/26 11:10:41;;;;;;;14.85;1.50;;;;;;;25.30;41.92;101786.53;5026600;28;20052;-69
2022/07/26 11:13:22;;;;;;;8.98;0.90;;;;;;;24.47;41.84;101796.56;5066286;28;20708;-69
2022/07/26 11:15:50;;;;;;;4.13;0.98;;;;;;;25.21;40.42;101789.16;5017832;28;20042;-69
2022/07/26 11:18:22;;;;;;;7.93;2.22;;;;;;;24.98;40.76;101792.00;5011480;28;20497;-70
2022/07/26 11:20:52;;;;;;;4.93;1.50;;;;;;;25.44;39.92;101795.69;5022842;28;20053;-68
2022/07/26 11:23:50;;;;;;;8.70;1.00;;;;;;;24.36;41.83;101804.94;5021094;28;20030;-69
2022/07/26 11:26:16;;;;;;;8.15;1.38;;;;;;;24.40;42.74;101829.88;5006710;28;20046;-70